Abbeville, Alabama
Current Conditions -  °F | °C
As of 9:53 AM on Friday 19 Dec 2014 (Local Time) from KDHN Reporting Station
Clear Clear  
Wind Chill: 50°   Ceiling: Unl
Heat Index: 50°   Visibility: 10mi
Dew Point: 37°   Wind: 3mph
Humidity: 61%   Direction: 20°NNE
Pressure: 30.22"   Gusts: NA
Location:  31.57°N, 85.25°W
Report Text: KDHN 191553Z 02003KT 10SM CLR 10/03 A3022 RMK AO2 SLP233 T01000028 $
Loading
Personal Weather Stations






























Interactive Weather Map New forecast layout! Learn more

10-Day Weather Forecast

Advertisements
Track Severe Weather on mobile